createdAt,value
2018-12-18T00:00:10.423Z,5.90
2018-12-18T00:02:38.805Z,5.90
2018-12-18T00:05:12.781Z,5.90
2018-12-18T00:07:41.065Z,5.90
2018-12-18T00:10:09.488Z,5.80
2018-12-18T00:12:37.751Z,5.70
2018-12-18T00:15:06.182Z,5.70
2018-12-18T00:17:34.451Z,5.60
2018-12-18T00:20:03.310Z,5.50
2018-12-18T00:22:31.697Z,5.40
2018-12-18T00:24:59.994Z,5.30
2018-12-18T00:27:28.259Z,5.30
2018-12-18T00:29:56.554Z,5.20
2018-12-18T00:32:24.825Z,5.10
2018-12-18T00:34:53.410Z,5.10
2018-12-18T00:37:21.694Z,5.00
2018-12-18T00:39:49.966Z,5.00
2018-12-18T00:42:18.249Z,5.00
2018-12-18T00:44:46.514Z,5.00
2018-12-18T00:47:14.801Z,4.90
2018-12-18T00:49:43.071Z,4.90
2018-12-18T00:52:11.331Z,4.80
2018-12-18T00:54:39.583Z,4.70
2018-12-18T00:57:07.885Z,4.70
2018-12-18T00:59:36.147Z,4.70
2018-12-18T01:02:04.637Z,4.70
2018-12-18T01:04:33.035Z,4.80
2018-12-18T01:07:01.334Z,5.00
2018-12-18T01:09:29.689Z,5.00
2018-12-18T01:11:57.985Z,5.10
2018-12-18T01:14:26.346Z,5.20
2018-12-18T01:16:54.625Z,5.30
2018-12-18T01:19:22.890Z,5.40
2018-12-18T01:21:51.421Z,5.40
2018-12-18T01:24:19.703Z,5.50
2018-12-18T01:26:47.953Z,5.50
2018-12-18T01:29:16.240Z,5.60
2018-12-18T01:31:44.501Z,5.60
2018-12-18T01:34:12.771Z,5.70
2018-12-18T01:36:41.038Z,5.70
2018-12-18T01:39:09.318Z,5.70
2018-12-18T01:41:37.706Z,5.80
2018-12-18T01:44:05.978Z,5.80
2018-12-18T01:46:34.289Z,5.70
2018-12-18T01:49:02.762Z,5.70
2018-12-18T01:51:31.029Z,5.70
2018-12-18T01:53:59.488Z,5.70
2018-12-18T01:56:27.749Z,5.70
2018-12-18T01:58:56.026Z,5.70
2018-12-18T02:01:24.386Z,5.70
2018-12-18T02:03:52.734Z,5.70
2018-12-18T02:06:21.139Z,5.60
2018-12-18T02:08:49.761Z,5.50
2018-12-18T02:11:19.952Z,5.50
2018-12-18T02:13:50.096Z,5.40
2018-12-18T02:16:18.622Z,5.30
2018-12-18T02:18:46.857Z,5.20
2018-12-18T02:21:15.145Z,5.10
2018-12-18T02:23:43.406Z,4.90
2018-12-18T02:26:11.687Z,4.90
2018-12-18T02:28:40.063Z,4.80
2018-12-18T02:31:08.303Z,4.80
2018-12-18T02:33:36.605Z,4.70
2018-12-18T02:36:04.900Z,4.70
2018-12-18T02:38:33.265Z,4.70
2018-12-18T02:41:01.549Z,4.70
2018-12-18T02:43:30.010Z,4.70
2018-12-18T02:45:58.316Z,4.70
2018-12-18T02:48:26.795Z,4.60
2018-12-18T02:50:56.163Z,4.50
2018-12-18T02:53:24.614Z,4.50
2018-12-18T02:55:52.906Z,4.50
2018-12-18T02:58:21.171Z,4.40
2018-12-18T03:00:49.420Z,4.40
2018-12-18T03:03:17.689Z,4.30
2018-12-18T03:05:45.949Z,4.20
2018-12-18T03:08:14.230Z,4.20
2018-12-18T03:10:42.550Z,4.20
2018-12-18T03:13:10.828Z,4.10
2018-12-18T03:15:39.084Z,4.10
2018-12-18T03:18:07.377Z,4.10
2018-12-18T03:20:35.635Z,4.10
2018-12-18T03:23:03.973Z,4.00
2018-12-18T03:25:32.256Z,4.00
2018-12-18T03:28:00.540Z,4.00
2018-12-18T03:30:28.894Z,4.00
2018-12-18T03:32:58.502Z,4.00
2018-12-18T03:35:27.058Z,3.90
2018-12-18T03:37:55.374Z,3.90
2018-12-18T03:40:23.632Z,3.90
2018-12-18T03:42:52.087Z,3.80
2018-12-18T03:45:20.362Z,3.70
2018-12-18T03:47:48.606Z,3.70
2018-12-18T03:50:16.882Z,3.60
2018-12-18T03:52:45.135Z,3.60
2018-12-18T03:55:13.611Z,3.50
2018-12-18T03:57:42.139Z,3.50
2018-12-18T04:00:11.644Z,3.50
2018-12-18T04:02:39.928Z,3.60
2018-12-18T04:05:08.986Z,3.60
2018-12-18T04:07:37.408Z,3.70
2018-12-18T04:10:05.973Z,3.70
2018-12-18T04:12:34.333Z,3.70
2018-12-18T04:15:02.609Z,3.60
2018-12-18T04:17:31.669Z,3.60
2018-12-18T04:19:59.968Z,3.70
2018-12-18T04:22:28.230Z,3.70
2018-12-18T04:24:56.156Z,3.70
2018-12-18T04:27:23.860Z,3.70
2018-12-18T04:29:51.567Z,3.70
2018-12-18T04:32:19.361Z,3.70
2018-12-18T04:34:47.535Z,3.60
2018-12-18T04:37:15.785Z,3.60
2018-12-18T04:39:44.126Z,3.60
2018-12-18T04:42:12.557Z,3.60
2018-12-18T04:44:40.979Z,3.60
2018-12-18T04:47:09.261Z,3.60
2018-12-18T04:49:37.531Z,3.60
2018-12-18T04:52:05.982Z,3.70
2018-12-18T04:54:34.329Z,3.70
2018-12-18T04:57:02.672Z,3.80
2018-12-18T04:59:30.919Z,3.80
2018-12-18T05:01:59.194Z,3.70
2018-12-18T05:04:27.537Z,3.70
2018-12-18T05:06:55.878Z,3.70
2018-12-18T05:09:24.237Z,3.70
2018-12-18T05:11:52.516Z,3.70
2018-12-18T05:14:20.865Z,3.70
2018-12-18T05:16:49.137Z,3.70
2018-12-18T05:19:17.391Z,3.60
2018-12-18T05:21:45.677Z,3.60
2018-12-18T05:24:13.931Z,3.60
2018-12-18T05:26:42.309Z,3.60
2018-12-18T05:29:10.569Z,3.50
2018-12-18T05:31:38.866Z,3.50
2018-12-18T05:34:07.211Z,3.50
2018-12-18T05:36:35.495Z,3.40
2018-12-18T05:39:06.209Z,3.40
2018-12-18T05:41:34.488Z,3.50
2018-12-18T05:44:02.859Z,3.40
2018-12-18T05:46:31.320Z,3.40
2018-12-18T05:48:59.697Z,3.40
2018-12-18T05:51:27.951Z,3.40
2018-12-18T05:53:56.390Z,3.40
2018-12-18T05:56:24.678Z,3.40
2018-12-18T05:58:52.945Z,3.40
2018-12-18T06:01:21.198Z,3.40
2018-12-18T06:03:49.473Z,3.40
2018-12-18T06:06:17.753Z,3.40
2018-12-18T06:08:46.037Z,3.40
2018-12-18T06:11:14.298Z,3.40
2018-12-18T06:13:42.580Z,3.40
2018-12-18T06:16:10.826Z,3.50
2018-12-18T06:18:39.242Z,3.50
2018-12-18T06:21:07.593Z,3.40
2018-12-18T06:23:35.842Z,3.50
2018-12-18T06:26:06.312Z,3.50
2018-12-18T06:28:34.865Z,3.50
2018-12-18T06:31:03.321Z,3.40
2018-12-18T06:33:31.593Z,3.40
2018-12-18T06:35:59.967Z,3.40
2018-12-18T06:38:28.223Z,3.50
2018-12-18T06:40:56.933Z,3.50
2018-12-18T06:43:25.657Z,3.60
2018-12-18T06:45:53.933Z,3.60
2018-12-18T06:48:22.213Z,3.50
2018-12-18T06:50:50.605Z,3.50
2018-12-18T06:53:18.874Z,3.50
2018-12-18T06:55:47.261Z,3.50
2018-12-18T06:58:15.626Z,3.50
2018-12-18T07:00:44.051Z,3.50
2018-12-18T07:03:12.314Z,3.70
2018-12-18T07:05:40.572Z,3.30
2018-12-18T07:08:08.854Z,3.70
2018-12-18T07:10:37.242Z,3.70
2018-12-18T07:13:05.584Z,3.80
2018-12-18T07:15:33.966Z,3.80
2018-12-18T07:18:02.355Z,3.80
2018-12-18T07:20:30.662Z,3.80
2018-12-18T07:22:59.045Z,3.80
2018-12-18T07:25:27.310Z,3.80
2018-12-18T07:27:55.673Z,3.90
2018-12-18T07:30:24.046Z,3.90
2018-12-18T07:32:52.417Z,3.90
2018-12-18T07:35:23.340Z,3.90
2018-12-18T07:37:51.381Z,3.90
2018-12-18T07:40:20.222Z,3.90
2018-12-18T07:42:48.506Z,3.90
2018-12-18T07:45:16.893Z,3.90
2018-12-18T07:47:45.177Z,3.90
2018-12-18T07:50:13.537Z,4.00
2018-12-18T07:52:41.795Z,4.00
2018-12-18T07:55:10.397Z,4.00
2018-12-18T07:57:38.682Z,4.10
2018-12-18T08:00:07.223Z,4.10
2018-12-18T08:02:35.545Z,4.20
2018-12-18T08:05:04.722Z,4.20
2018-12-18T08:07:33.055Z,4.20
2018-12-18T08:10:01.441Z,4.20
2018-12-18T08:12:29.885Z,4.20
2018-12-18T08:14:58.186Z,5.50
2018-12-18T08:17:26.556Z,4.20
2018-12-18T08:19:54.805Z,4.20
2018-12-18T08:22:23.054Z,4.20
2018-12-18T08:24:51.431Z,4.30
2018-12-18T08:27:19.677Z,4.30
2018-12-18T08:29:47.945Z,4.30
2018-12-18T08:32:16.202Z,4.40
2018-12-18T08:34:44.473Z,4.40
2018-12-18T08:37:12.723Z,4.50
2018-12-18T08:39:41.031Z,4.50
2018-12-18T08:42:09.320Z,4.50
2018-12-18T08:44:37.685Z,4.50
2018-12-18T08:47:05.959Z,4.60
2018-12-18T08:49:34.322Z,4.60
2018-12-18T08:52:02.627Z,4.60
2018-12-18T08:54:31.154Z,4.60
2018-12-18T08:56:59.432Z,4.70
2018-12-18T08:59:27.682Z,4.70
2018-12-18T09:01:55.963Z,4.80
2018-12-18T09:04:24.754Z,4.80
2018-12-18T09:06:53.286Z,4.90
2018-12-18T09:09:21.537Z,5.00
2018-12-18T09:11:50.094Z,5.10
2018-12-18T09:14:18.333Z,3.40
2018-12-18T09:16:52.518Z,5.30
2018-12-18T09:19:20.808Z,5.60
2018-12-18T09:21:49.094Z,6.30
2018-12-18T09:24:17.368Z,7.10
2018-12-18T09:26:45.705Z,7.50
2018-12-18T09:29:13.975Z,7.90
2018-12-18T09:31:42.233Z,8.10
2018-12-18T09:34:10.499Z,8.40
2018-12-18T09:36:38.804Z,8.40
2018-12-18T09:39:12.822Z,8.60
2018-12-18T09:41:43.110Z,8.80
2018-12-18T09:44:15.558Z,8.90
2018-12-18T09:46:44.044Z,9.00
2018-12-18T09:49:12.388Z,9.00
2018-12-18T09:51:40.634Z,8.90
2018-12-18T09:54:09.318Z,9.00
2018-12-18T09:56:43.032Z,9.10
2018-12-18T09:59:10.746Z,9.60
2018-12-18T10:01:38.453Z,9.90
2018-12-18T10:04:06.335Z,9.80
2018-12-18T10:06:34.022Z,10.00
2018-12-18T10:09:01.775Z,9.90
2018-12-18T10:11:29.486Z,9.80
2018-12-18T10:13:57.292Z,9.50
2018-12-18T10:16:25.017Z,9.40
2018-12-18T10:18:52.797Z,9.50
2018-12-18T10:21:20.488Z,9.70
2018-12-18T10:23:48.231Z,9.70
2018-12-18T10:26:15.972Z,9.90
2018-12-18T10:28:43.741Z,10.10
2018-12-18T10:31:11.444Z,10.10
2018-12-18T10:33:39.200Z,10.30
2018-12-18T10:36:07.005Z,10.40
2018-12-18T10:38:34.837Z,10.60
2018-12-18T10:41:02.958Z,10.60
2018-12-18T10:43:30.668Z,10.40
2018-12-18T10:45:58.633Z,10.20
2018-12-18T10:48:26.360Z,10.20
2018-12-18T10:50:54.196Z,10.30
2018-12-18T10:53:21.909Z,10.10
2018-12-18T10:55:49.692Z,10.40
2018-12-18T10:58:23.826Z,10.60
2018-12-18T11:03:53.300Z,10.70
2018-12-18T11:06:21.003Z,10.40
2018-12-18T11:08:48.712Z,11.10
2018-12-18T11:11:16.457Z,11.40
2018-12-18T11:13:44.185Z,11.60
2018-12-18T11:16:11.932Z,11.10
2018-12-18T11:18:39.621Z,11.00
2018-12-18T11:21:07.620Z,11.00
2018-12-18T11:23:35.360Z,10.90
2018-12-18T11:26:03.085Z,10.60
2018-12-18T11:28:30.830Z,10.50
2018-12-18T11:30:58.569Z,10.30
2018-12-18T11:33:26.267Z,10.00
2018-12-18T11:35:54.225Z,9.80
2018-12-18T11:38:21.929Z,9.60
2018-12-18T11:40:49.782Z,9.70
2018-12-18T11:43:17.813Z,9.70
2018-12-18T11:45:45.737Z,9.70
2018-12-18T11:48:13.461Z,9.80
2018-12-18T11:50:41.269Z,9.80
2018-12-18T11:53:08.994Z,9.50
2018-12-18T11:55:36.777Z,9.40
2018-12-18T11:58:04.542Z,9.30
2018-12-18T12:00:32.346Z,9.30
2018-12-18T12:03:00.061Z,9.30
2018-12-18T12:05:27.797Z,9.30
2018-12-18T12:07:55.528Z,9.30
2018-12-18T12:10:23.240Z,9.20
2018-12-18T12:12:50.993Z,9.20
2018-12-18T12:15:19.070Z,9.10
2018-12-18T12:17:47.026Z,9.10
2018-12-18T12:20:14.801Z,9.10
2018-12-18T12:22:42.653Z,9.00
2018-12-18T12:25:10.408Z,9.00
2018-12-18T12:30:44.373Z,8.90
2018-12-18T12:33:12.184Z,8.90
2018-12-18T12:35:39.896Z,8.90
2018-12-18T12:38:07.606Z,8.80
2018-12-18T12:40:35.321Z,8.70
2018-12-18T12:43:03.059Z,8.70
2018-12-18T12:45:31.615Z,8.70
2018-12-18T12:47:59.441Z,8.80
2018-12-18T12:50:27.253Z,8.70
2018-12-18T12:52:54.966Z,8.70
2018-12-18T12:55:22.712Z,8.70
2018-12-18T12:57:50.424Z,8.70
2018-12-18T13:00:18.158Z,8.80
2018-12-18T13:02:46.370Z,8.80
2018-12-18T13:05:14.087Z,8.70
2018-12-18T13:07:43.060Z,8.60
2018-12-18T13:10:10.908Z,8.50
2018-12-18T13:12:38.801Z,8.50
2018-12-18T13:15:06.808Z,8.40
2018-12-18T13:17:34.838Z,8.40
2018-12-18T13:20:02.801Z,8.30
2018-12-18T13:22:30.713Z,8.30
2018-12-18T13:24:58.420Z,8.20
2018-12-18T13:27:26.370Z,8.20
2018-12-18T13:29:54.262Z,8.20
2018-12-18T13:32:22.041Z,8.20
2018-12-18T13:34:49.870Z,8.10
2018-12-18T13:37:17.620Z,8.10
2018-12-18T13:39:45.373Z,8.10
2018-12-18T13:42:13.134Z,8.10
2018-12-18T13:44:40.893Z,8.10
2018-12-18T13:47:08.664Z,8.00
2018-12-18T13:49:36.421Z,8.00
2018-12-18T13:52:04.421Z,8.00
2018-12-18T13:54:32.219Z,8.00
2018-12-18T13:57:00.002Z,7.90
2018-12-18T13:59:27.746Z,7.80
2018-12-18T14:01:55.485Z,7.70
2018-12-18T14:04:23.397Z,7.70
2018-12-18T14:06:51.752Z,7.50
2018-12-18T14:09:20.100Z,7.50
2018-12-18T14:11:48.720Z,7.40
2018-12-18T14:14:17.015Z,7.30
2018-12-18T14:16:45.315Z,7.30
2018-12-18T14:19:13.653Z,7.20
2018-12-18T14:21:41.982Z,7.10
2018-12-18T14:24:10.276Z,7.00
2018-12-18T14:26:39.502Z,7.00
2018-12-18T14:29:07.861Z,7.00
2018-12-18T14:31:36.202Z,6.90
2018-12-18T14:34:04.477Z,6.80
2018-12-18T14:36:32.743Z,6.80
2018-12-18T14:39:01.271Z,6.70
2018-12-18T14:41:29.566Z,6.60
2018-12-18T14:46:52.059Z,6.50
2018-12-18T14:49:20.425Z,6.50
2018-12-18T14:51:48.778Z,6.40
2018-12-18T14:54:17.301Z,6.30
2018-12-18T14:56:45.656Z,6.30
2018-12-18T14:59:14.117Z,6.20
2018-12-18T15:01:42.440Z,6.10
2018-12-18T15:04:10.954Z,6.10
2018-12-18T15:06:39.260Z,6.10
2018-12-18T15:09:08.027Z,6.00
2018-12-18T15:11:36.519Z,5.90
2018-12-18T15:14:04.867Z,5.80
2018-12-18T15:16:34.240Z,5.70
2018-12-18T15:19:02.892Z,5.70
2018-12-18T15:21:31.514Z,5.70
2018-12-18T15:24:00.130Z,5.60
2018-12-18T15:26:28.461Z,5.60
2018-12-18T15:28:56.784Z,5.50
2018-12-18T15:31:25.133Z,5.40
2018-12-18T15:33:54.415Z,5.40
2018-12-18T15:36:22.735Z,5.40
2018-12-18T15:38:51.199Z,5.50
2018-12-18T15:41:19.497Z,5.50
2018-12-18T15:43:47.831Z,5.40
2018-12-18T15:46:16.200Z,5.40
2018-12-18T15:48:44.748Z,5.40
2018-12-18T15:51:13.110Z,5.40
2018-12-18T15:53:41.551Z,5.30
2018-12-18T15:56:09.873Z,5.20
2018-12-18T15:58:38.315Z,5.20
2018-12-18T16:01:06.658Z,5.20
2018-12-18T16:03:35.187Z,5.10
2018-12-18T16:06:04.322Z,5.10
2018-12-18T16:08:32.833Z,5.10
2018-12-18T16:11:01.118Z,5.00
2018-12-18T16:13:30.407Z,5.00
2018-12-18T16:15:58.787Z,5.00
2018-12-18T16:18:27.109Z,4.90
2018-12-18T16:20:55.409Z,4.90
2018-12-18T16:23:24.074Z,4.90
2018-12-18T16:25:52.711Z,4.90
2018-12-18T16:28:21.831Z,4.80
2018-12-18T16:30:50.367Z,4.80
2018-12-18T16:33:18.688Z,4.80
2018-12-18T16:35:47.376Z,4.70
2018-12-18T16:38:15.972Z,4.70
2018-12-18T16:43:40.094Z,4.60
2018-12-18T16:46:08.485Z,4.60
2018-12-18T16:48:36.916Z,4.60
2018-12-18T16:51:05.911Z,4.60
2018-12-18T16:53:34.192Z,4.60
2018-12-18T16:56:03.175Z,4.60
2018-12-18T16:58:32.451Z,4.60
2018-12-18T17:01:00.794Z,4.70
2018-12-18T17:03:29.253Z,4.70
2018-12-18T17:05:57.545Z,4.70
2018-12-18T17:08:26.217Z,4.70
2018-12-18T17:10:55.734Z,4.70
2018-12-18T17:13:24.121Z,4.70
2018-12-18T17:15:51.971Z,4.80
2018-12-18T17:18:19.725Z,4.90
2018-12-18T17:20:48.344Z,4.90
2018-12-18T17:23:16.203Z,4.90
2018-12-18T17:25:44.197Z,4.90
2018-12-18T17:28:12.014Z,4.90
2018-12-18T17:30:39.805Z,4.90
2018-12-18T17:33:07.651Z,4.90
2018-12-18T17:35:35.407Z,4.80
2018-12-18T17:38:03.495Z,4.70
2018-12-18T17:40:31.542Z,4.70
2018-12-18T17:42:59.306Z,4.60
2018-12-18T17:45:27.321Z,4.70
2018-12-18T17:47:55.251Z,5.80
2018-12-18T17:50:23.046Z,4.70
2018-12-18T17:52:50.916Z,4.70
2018-12-18T17:55:19.072Z,4.70
2018-12-18T17:57:46.809Z,4.60
2018-12-18T18:00:14.667Z,4.60
2018-12-18T18:02:43.199Z,4.60
2018-12-18T18:05:11.096Z,4.50
2018-12-18T18:07:42.962Z,4.50
2018-12-18T18:10:09.546Z,4.50
2018-12-18T18:12:37.349Z,4.50
2018-12-18T18:15:05.294Z,4.50
2018-12-18T18:17:33.199Z,4.50
2018-12-18T18:20:01.463Z,4.50
2018-12-18T18:22:29.275Z,4.50
2018-12-18T18:24:56.994Z,4.50
2018-12-18T18:27:24.719Z,4.60
2018-12-18T18:29:53.567Z,4.60
2018-12-18T18:32:21.543Z,4.60
2018-12-18T18:34:49.302Z,4.60
2018-12-18T18:37:17.290Z,4.70
2018-12-18T18:39:45.036Z,4.60
2018-12-18T18:42:13.249Z,4.70
2018-12-18T18:44:42.048Z,4.70
2018-12-18T18:47:10.804Z,4.60
2018-12-18T18:49:38.730Z,4.70
2018-12-18T18:52:06.639Z,4.70
2018-12-18T18:54:34.409Z,4.80
2018-12-18T18:57:02.419Z,4.80
2018-12-18T18:59:30.342Z,4.80
2018-12-18T19:01:58.052Z,4.80
2018-12-18T19:04:25.936Z,4.80
2018-12-18T19:06:53.729Z,4.80
2018-12-18T19:09:21.649Z,4.80
2018-12-18T19:11:49.430Z,4.90
2018-12-18T19:14:17.312Z,4.90
2018-12-18T19:16:45.545Z,4.90
2018-12-18T19:19:13.465Z,4.80
2018-12-18T19:21:41.631Z,4.80
2018-12-18T19:24:10.088Z,4.80
2018-12-18T19:26:37.783Z,4.80
2018-12-18T19:29:05.627Z,4.80
2018-12-18T19:31:33.775Z,4.80
2018-12-18T19:34:02.153Z,4.80
2018-12-18T19:36:30.131Z,4.80
2018-12-18T19:38:57.937Z,4.80
2018-12-18T19:41:25.773Z,4.70
2018-12-18T19:43:53.510Z,4.70
2018-12-18T19:46:21.551Z,4.70
2018-12-18T19:48:49.309Z,4.70
2018-12-18T19:51:17.938Z,4.80
2018-12-18T19:53:45.726Z,4.80
2018-12-18T19:56:13.727Z,4.80
2018-12-18T19:58:41.453Z,4.80
2018-12-18T20:01:09.273Z,4.90
2018-12-18T20:03:37.126Z,4.80
2018-12-18T20:06:07.337Z,4.80
2018-12-18T20:08:35.808Z,4.90
2018-12-18T20:11:03.619Z,5.00
2018-12-18T20:13:31.336Z,5.00
2018-12-18T20:15:59.106Z,5.10
2018-12-18T20:18:26.806Z,5.20
2018-12-18T20:20:54.520Z,5.20
2018-12-18T20:23:22.472Z,5.30
2018-12-18T20:25:50.405Z,5.30
2018-12-18T20:28:18.135Z,5.30
2018-12-18T20:30:45.851Z,5.30
2018-12-18T20:33:13.760Z,5.30
2018-12-18T20:35:41.457Z,5.40
2018-12-18T20:38:09.199Z,5.40
2018-12-18T20:40:37.189Z,5.40
2018-12-18T20:43:05.043Z,5.40
2018-12-18T20:45:32.757Z,5.40
2018-12-18T20:48:00.569Z,5.40
2018-12-18T20:50:28.337Z,5.30
2018-12-18T20:52:56.109Z,5.30
2018-12-18T20:55:23.945Z,5.30
2018-12-18T20:57:51.680Z,5.30
2018-12-18T21:00:19.414Z,5.30
2018-12-18T21:02:47.712Z,5.30
2018-12-18T21:05:15.408Z,5.30
2018-12-18T21:07:43.122Z,5.30
2018-12-18T21:10:10.958Z,5.30
2018-12-18T21:12:39.180Z,5.20
2018-12-18T21:15:07.088Z,5.30
2018-12-18T21:17:34.889Z,5.40
2018-12-18T21:20:02.969Z,5.30
2018-12-18T21:22:30.794Z,5.30
2018-12-18T21:25:02.597Z,5.30
2018-12-18T21:27:30.489Z,5.30
2018-12-18T21:29:58.247Z,5.40
2018-12-18T21:32:25.969Z,5.40
2018-12-18T21:34:53.690Z,5.30
2018-12-18T21:37:21.408Z,5.30
2018-12-18T21:39:49.248Z,5.40
2018-12-18T21:42:17.105Z,5.40
2018-12-18T21:44:44.844Z,5.40
2018-12-18T21:47:12.715Z,5.30
2018-12-18T21:49:40.787Z,5.30
2018-12-18T21:52:08.697Z,5.40
2018-12-18T21:54:36.462Z,5.40
2018-12-18T21:57:04.199Z,5.50
2018-12-18T21:59:32.016Z,5.50
2018-12-18T22:02:00.027Z,5.60
2018-12-18T22:04:27.790Z,5.60
2018-12-18T22:06:55.524Z,5.70
2018-12-18T22:09:23.230Z,5.70
2018-12-18T22:11:51.076Z,5.80
2018-12-18T22:14:18.879Z,5.80
2018-12-18T22:16:46.595Z,5.80
2018-12-18T22:19:14.320Z,5.90
2018-12-18T22:21:42.145Z,5.90
2018-12-18T22:24:09.890Z,5.90
2018-12-18T22:26:37.593Z,6.00
2018-12-18T22:29:05.335Z,6.00
2018-12-18T22:31:33.360Z,6.00
2018-12-18T22:34:01.108Z,6.10
2018-12-18T22:36:28.818Z,6.10
2018-12-18T22:38:56.743Z,6.10
2018-12-18T22:41:24.456Z,6.10
2018-12-18T22:43:52.398Z,6.10
2018-12-18T22:46:20.112Z,6.10
2018-12-18T22:48:47.851Z,6.10
2018-12-18T22:51:15.779Z,6.00
2018-12-18T22:53:43.503Z,6.00
2018-12-18T22:56:11.202Z,5.90
2018-12-18T22:58:38.944Z,5.90
2018-12-18T23:04:10.701Z,5.90
2018-12-18T23:06:38.507Z,5.80
2018-12-18T23:09:08.831Z,5.80
2018-12-18T23:11:36.541Z,5.80
2018-12-18T23:14:04.357Z,5.80
2018-12-18T23:16:32.064Z,5.80
2018-12-18T23:18:59.889Z,5.70
2018-12-18T23:21:27.597Z,5.70
2018-12-18T23:23:55.796Z,5.70
2018-12-18T23:26:24.166Z,5.60
2018-12-18T23:28:52.467Z,5.60
2018-12-18T23:31:20.730Z,5.60
2018-12-18T23:33:49.002Z,5.60
2018-12-18T23:36:17.289Z,5.60
2018-12-18T23:38:45.553Z,5.60
2018-12-18T23:41:14.237Z,5.60
2018-12-18T23:43:42.604Z,5.60
2018-12-18T23:46:10.865Z,5.60
2018-12-18T23:48:39.798Z,5.60
2018-12-18T23:51:08.501Z,5.60
2018-12-18T23:53:36.765Z,5.50
2018-12-18T23:56:05.049Z,5.50
2018-12-18T23:58:33.373Z,5.50
